• Join FlightAware (Why Join?)
  • Login
  • US Flag 
03:04AM EDT


 

Airport Tracker/Info


-or-


 

Live Flight TrackerFlight Track Log ✈ SWA3584 ✈ 28-Sep-2013 ✈ KISP - KMCO

Flight Track Log - Related Links

Times and Time Zones

All times are in EDT time to prevent confusion due to time zone crossing. See the SWA3584 flight status page for this flight to view local times or setup timezone preferences in your user account.

Time Position Orientation Groundspeed Altitude Reporting Facility
EDT Latitude Longitude Course Direction KTS MPH feet Rate Location/Type
11:45AM 40.8031 -72.8897 96° East 210 242 8,000  Level Boston Center
11:46AM 40.7869 -72.7992 103° East 232 267 8,000 660 Level Boston Center
11:47AM 40.7683 -72.7114 106° East 244 281 9,400 1,320 Climbing Boston Center
11:48AM 40.7058 -72.6317 136° Southeast 282 325 10,700 2,760 Climbing Boston Center
11:49AM 40.6289 -72.5603 145° Southeast 304 350 14,900 3,420 Climbing Boston Center
11:50AM 40.5436 -72.5247 162° South 317 365 17,600 2,280 Climbing Boston Center
11:51AM 40.4517 -72.6200 218° Southwest 306 352 19,600 2,340 Climbing Boston Center
11:52AM 40.3683 -72.7289 225° Southwest 369 425 22,300 2,460 Climbing Boston Center
11:53AM 40.2825 -72.8400 225° Southwest 397 457 24,500 2,100 Climbing Boston Center
11:54AM 40.1964 -72.9589 227° Southwest 428 493 26,600 2,100 Climbing Boston Center
11:56AM 40.0328 -73.1692 225° Southwest 461 531 30,700 1,980 Climbing Washington Center
11:57AM 39.9414 -73.2914 226° Southwest 461 531 32,400 1,440 Climbing Washington Center
11:58AM 39.8433 -73.4025 221° Southwest 461 531 33,700 1,200 Climbing Washington Center
11:59AM 39.7308 -73.5058 215° Southwest 483 556 34,900 1,500 Climbing Washington Center
12:00PM 39.6242 -73.6142 218° Southwest 488 562 36,800 1,500 Climbing Washington Center
12:01PM 39.5175 -73.7192 217° Southwest 493 567 37,900 600 Climbing Washington Center
12:02PM 39.4086 -73.8269 217° Southwest 493 567 38,000  Climbing Washington Center
12:03PM 39.3019 -73.9367 219° Southwest 493 567 38,000  Level Washington Center
12:04PM 39.1886 -74.0436 216° Southwest 499 574 38,000  Level Washington Center
12:05PM 39.0797 -74.1531 218° Southwest 499 574 38,000  Level Washington Center
12:06PM 38.9683 -74.2619 217° Southwest 499 574 38,000  Level Washington Center
12:07PM 38.8611 -74.3681 218° Southwest 499 574 38,000  Level Washington Center
12:08PM 38.7475 -74.4736 216° Southwest 504 580 38,000  Level Washington Center
12:09PM 38.6358 -74.5869 218° Southwest 504 580 38,000  Level Washington Center
12:10PM 38.5242 -74.6919 216° Southwest 504 580 38,000  Level Washington Center
12:11PM 38.4122 -74.7967 216° Southwest 509 586 38,000  Level Washington Center
12:12PM 38.3044 -74.9064 219° Southwest 509 586 38,000  Level Washington Center
12:13PM 38.1883 -75.0131 216° Southwest 509 586 38,000  Level Washington Center
12:14PM 38.0761 -75.1194 217° Southwest 509 586 38,000  Level Washington Center
12:15PM 37.9639 -75.2283 217° Southwest 509 586 38,000  Level Washington Center
12:16PM 37.8517 -75.3342 217° Southwest 509 586 38,000  Level Washington Center
12:17PM 37.7372 -75.4394 216° Southwest 515 593 38,000  Level Washington Center
12:18PM 37.6225 -75.5472 217° Southwest 515 593 38,000  Level Washington Center
12:19PM 37.5100 -75.6519 216° Southwest 515 593 38,000  Level Washington Center
12:20PM 37.3972 -75.7539 216° Southwest 515 593 38,000  Level Washington Center
12:21PM 37.2844 -75.8581 216° Southwest 515 593 38,000  Level Washington Center
12:22PM 37.1714 -75.9619 216° Southwest 510 587 38,000  Level Washington Center
12:23PM 37.0606 -76.0656 217° Southwest 510 587 38,000  Level Washington Center
12:24PM 36.9328 -76.1767 215° Southwest 510 587 38,000  Level Washington Center
12:25PM 36.8197 -76.2769 215° Southwest 518 596 38,000  Level Washington Center
12:26PM 36.7064 -76.3794 216° Southwest 513 590 38,000  Level Washington Center
12:27PM 36.5950 -76.4844 217° Southwest 513 590 38,000  Level Washington Center
12:28PM 36.4794 -76.5864 215° Southwest 513 590 38,000 -60 Level Washington Center
12:29PM 36.3617 -76.6881 215° Southwest 513 590 37,900  Descending Washington Center
12:30PM 36.2481 -76.7897 216° Southwest 513 590 38,000  Climbing Washington Center
12:31PM 36.1386 -76.8986 219° Southwest 518 596 38,000  Level Washington Center
12:32PM 36.0267 -77.0122 219° Southwest 518 596 38,000  Level Washington Center
12:33PM 35.9208 -77.1233 220° Southwest 518 596 38,000  Level Washington Center
12:34PM 35.8131 -77.2286 218° Southwest 507 583 38,000  Level Washington Center
12:35PM 35.7031 -77.3417 220° Southwest 507 583 38,000  Level Washington Center
12:36PM 35.5928 -77.4517 219° Southwest 512 589 38,000  Level Washington Center
12:37PM 35.4847 -77.5586 219° Southwest 512 589 38,000  Level Washington Center
12:38PM 35.3744 -77.6681 219° Southwest 512 589 38,000  Level Washington Center
12:39PM 35.2639 -77.7747 218° Southwest 512 589 38,000  Level Washington Center
12:40PM 35.1578 -77.8836 220° Southwest 505 581 38,000  Level Washington Center
12:41PM 35.0469 -77.9919 219° Southwest 505 581 38,000  Level Washington Center
12:42PM 34.9383 -78.0978 219° Southwest 505 581 38,000  Level Washington Center
12:43PM 34.8297 -78.2033 219° Southwest 505 581 38,000  Level Washington Center
12:45PM 34.6064 -78.4278 220° Southwest 502 578 38,000  Level Jacksonville Center
12:46PM 34.5031 -78.5164 215° Southwest 502 578 38,000  Level Jacksonville Center
12:47PM 34.3864 -78.6406 221° Southwest 513 590 38,000  Level Jacksonville Center
12:48PM 34.2753 -78.7489 219° Southwest 513 590 38,000  Level Jacksonville Center
12:49PM 34.1700 -78.8444 217° Southwest 526 605 38,000  Level Jacksonville Center
12:50PM 34.0586 -78.9497 218° Southwest 526 605 38,000  Level Jacksonville Center
12:51PM 33.9408 -79.0528 216° Southwest 526 605 38,000  Level Jacksonville Center
12:52PM 33.8031 -79.1186 202° Southwest 526 605 38,000  Level Jacksonville Center
12:53PM 33.6589 -79.1847 201° Southwest 526 605 38,000  Level Jacksonville Center
12:54PM 33.5231 -79.2503 202° Southwest 514 592 38,000  Level Jacksonville Center
12:55PM 33.3828 -79.3106 200° South 519 597 38,000  Level Jacksonville Center
12:56PM 33.2489 -79.3731 201° Southwest 531 611 38,000  Level Jacksonville Center
12:57PM 33.1131 -79.4356 201° Southwest 531 611 38,000  Level Jacksonville Center
12:58PM 32.9769 -79.4978 201° Southwest 525 604 38,000  Level Jacksonville Center
12:59PM 32.8428 -79.5597 201° Southwest 525 604 38,000  Level Jacksonville Center
01:00PM 32.7047 -79.6217 201° Southwest 525 604 38,000  Level Jacksonville Center
01:01PM 32.5686 -79.6856 202° Southwest 530 610 38,000  Level Jacksonville Center
01:02PM 32.4322 -79.7469 201° Southwest 524 603 38,000  Level Jacksonville Center
01:03PM 32.2981 -79.8081 201° Southwest 529 609 38,000  Level Jacksonville Center
01:04PM 32.1597 -79.8717 201° Southwest 529 609 38,000  Level Jacksonville Center
01:05PM 32.0189 -79.9181 196° South 529 609 38,000  Level Jacksonville Center
01:06PM 31.8758 -79.9594 194° South 523 602 38,000  Level Jacksonville Center
01:07PM 31.7347 -80.0006 194° South 523 602 38,000  Level Jacksonville Center
01:08PM 31.6103 -80.0336 193° South 523 602 38,000  Level Jacksonville Center
01:09PM 31.4692 -80.0744 194° South 523 602 38,000  Level Jacksonville Center
01:10PM 31.3281 -80.1128 193° South 529 609 38,000  Level Jacksonville Center
01:11PM 31.1828 -80.1511 193° South 529 609 38,000  Level Jacksonville Center
01:12PM 31.0397 -80.1917 194° South 524 603 38,000  Level Jacksonville Center
01:13PM 30.9047 -80.2317 194° South 524 603 38,000 -1,080 Level Jacksonville Center
01:14PM 30.7614 -80.2697 193° South 530 610 35,900 -2,040 Descending Jacksonville Center
01:15PM 30.6161 -80.3122 194° South 530 610 34,000 -960 Descending Jacksonville Center
01:16PM 30.4708 -80.3500 193° South 530 610 34,000  Level Jacksonville Center
01:17PM 30.3275 -80.3922 194° South 535 616 34,000  Level Jacksonville Center
01:18PM 30.1803 -80.4319 193° South 535 616 34,000  Level Jacksonville Center
01:19PM 30.0389 -80.4669 192° South 535 616 34,000  Level Jacksonville Center
01:20PM 29.8936 -80.5089 194° South 528 608 34,000 -1,020 Level Jacksonville Center
01:21PM 29.7503 -80.5506 194° South 528 608 32,000 -2,940 Descending Jacksonville Center
01:22PM 29.6089 -80.5875 193° South 528 608 28,200 -3,900 Descending Jacksonville Center
01:23PM 29.4761 -80.6239 193° South 523 602 24,300 -3,600 Descending Jacksonville Center
01:24PM 29.3492 -80.6578 193° South 500 575 21,000 -3,240 Descending Jacksonville Center
01:25PM 29.2244 -80.6869 192° South 479 551 17,900 -3,120 Descending Jacksonville Center
01:26PM 29.1103 -80.7156 192° South 444 511 14,800 -2,880 Descending Jacksonville Center
01:27PM 29.0042 -80.7439 193° South 413 475 12,200 -1,920 Descending Jacksonville Center
01:28PM 28.9067 -80.7675 192° South 381 438 11,000 -1,200 Descending Jacksonville Center
01:29PM 28.8333 -80.7833 191° South 314 361 10,100 -1,260 Descending Orlando TRACON
01:30PM 28.7667 -80.8333 213° Southwest 303 349 8,800 -1,440 Descending Orlando TRACON
01:31PM 28.7000 -80.9000 221° Southwest 289 333 7,300 -1,500 Descending Orlando TRACON
01:32PM 28.6500 -80.9500 221° Southwest 290 334 6,000 -720 Descending Orlando TRACON
01:33PM 28.5833 -81.0167 221° Southwest 284 327 6,000 -120 Level Orlando TRACON
01:34PM 28.5167 -81.0667 213° Southwest 273 314 5,800 -600 Descending Orlando TRACON
01:35PM 28.4667 -81.1167 221° Southwest 244 281 4,900 -1,320 Descending Orlando TRACON
01:36PM 28.4167 -81.1667 221° Southwest 237 273 3,200 -1,260 Descending Orlando TRACON
01:37PM 28.3667 -81.1833 196° South 210 242 2,600 -780 Descending Orlando TRACON
01:38PM 28.3500 -81.2500 254° West 191 220 1,700 -780 Descending Orlando TRACON
01:39PM 28.3667 -81.2833 300° West 143 165 1,000 -720 Descending Orlando TRACON
01:40PM 28.4167 -81.2833 360° North 129 148 300 -720 Descending Orlando TRACON
01:42PM 28.4167 -81.3000 336° Northwest  Level FlightAware Approximate
01:49PM 28.4294 -81.3090 336° Northwest  Level Estimated
01:50PM 28.4294 -81.3090 336° Northwest  Level Estimated
01:51PM 28.4294 -81.3090 336° Northwest  Level Estimated